Time;durP1;ratioP1;P1;durP2;ratioP2;P2;SDS_P1;SDS_P2;PMS_P1;PMS_P2;Temp;Humidity;BMP_temperature;BMP_pressure;BME280_temperature;BME280_humidity;BME280_pressure;Samples;Min_cycle;Max_cycle;Signal;HPM_P1;HPM_P2
2022/09/24 00:01:16;;;;;;;9.93;5.83;;;;;;;4.91;86.37;99707.61;1725810;81;20984;-57
2022/09/24 00:03:46;;;;;;;7.87;5.65;;;;;;;4.88;86.44;99706.39;1720117;81;20899;-57
2022/09/24 00:06:13;;;;;;;7.95;5.45;;;;;;;4.85;86.44;99712.48;1694754;83;20923;-58
2022/09/24 00:08:40;;;;;;;9.63;6.42;;;;;;;4.83;86.49;99706.94;1732381;81;20993;-57
2022/09/24 00:11:10;;;;;;;9.23;5.35;;;;;;;4.81;86.48;99708.70;1726129;81;21223;-57
2022/09/24 00:13:38;;;;;;;10.23;6.40;;;;;;;4.78;86.46;99711.37;1733253;81;20924;-57
2022/09/24 00:16:10;;;;;;;10.55;7.00;;;;;;;4.75;86.50;99703.69;1721569;82;20977;-57
2022/09/24 00:18:37;;;;;;;9.45;6.70;;;;;;;4.74;86.63;99709.75;1733010;81;21433;-57
2022/09/24 00:21:20;;;;;;;9.98;6.47;;;;;;;4.73;86.71;99702.86;1711380;82;20934;-57
2022/09/24 00:23:53;;;;;;;11.70;6.40;;;;;;;4.74;86.78;99705.88;1707038;82;21869;-57
2022/09/24 00:29:07;;;;;;;11.83;7.10;;;;;;;4.70;86.92;99704.66;1716669;82;20994;-57
2022/09/24 00:31:34;;;;;;;10.88;7.12;;;;;;;4.74;87.17;99696.82;1729135;82;20905;-57
2022/09/24 00:34:02;;;;;;;10.20;7.83;;;;;;;4.78;87.32;99701.02;1709586;82;20930;-57
2022/09/24 00:36:28;;;;;;;12.45;7.80;;;;;;;4.84;87.47;99690.52;1718869;82;21013;-57
2022/09/24 00:38:58;;;;;;;13.55;9.08;;;;;;;4.90;87.60;99691.66;1707543;82;20905;-57
2022/09/24 00:41:29;;;;;;;11.65;9.08;;;;;;;4.99;87.80;99684.98;1720469;81;20965;-57
2022/09/24 00:43:56;;;;;;;13.68;8.13;;;;;;;5.09;87.83;99689.02;1710995;82;20933;-57
2022/09/24 00:46:37;;;;;;;14.83;8.05;;;;;;;5.20;87.94;99685.31;1703235;82;20957;-58
2022/09/24 00:49:12;;;;;;;13.70;8.70;;;;;;;5.30;88.03;99685.05;1729559;81;21503;-57
2022/09/24 00:51:40;;;;;;;12.28;8.35;;;;;;;5.41;88.07;99677.00;1721364;81;20936;-57
2022/09/24 00:54:12;;;;;;;13.00;8.85;;;;;;;5.46;88.01;99669.95;1723602;82;20930;-57
2022/09/24 00:56:40;;;;;;;14.13;8.18;;;;;;;5.54;88.08;99669.27;1722374;82;21595;-57
2022/09/24 00:59:10;;;;;;;16.70;8.38;;;;;;;5.61;88.16;99669.52;1714327;82;20939;-57
2022/09/24 01:01:38;;;;;;;13.20;8.35;;;;;;;5.71;88.27;99671.84;1732778;82;21960;-58
2022/09/24 01:04:05;;;;;;;10.58;8.05;;;;;;;5.78;88.32;99663.02;1725339;81;21418;-57
2022/09/24 01:06:32;;;;;;;13.70;7.53;;;;;;;5.84;88.33;99660.25;1708187;82;20930;-57
2022/09/24 01:09:00;;;;;;;10.03;7.37;;;;;;;5.89;88.28;99657.08;1716130;82;20901;-57
2022/09/24 01:12:15;;;;;;;12.40;7.87;;;;;;;5.95;88.39;99658.22;1697314;83;20970;-57
2022/09/24 01:15:22;;;;;;;13.18;7.97;;;;;;;6.04;88.55;99655.35;1686687;83;21065;-57
2022/09/24 01:18:06;;;;;;;10.15;7.10;;;;;;;6.15;88.54;99646.41;1713349;82;20980;-57
2022/09/24 01:20:51;;;;;;;10.38;7.62;;;;;;;6.22;88.63;99653.13;1711016;82;20933;-57
2022/09/24 01:23:35;;;;;;;14.65;7.20;;;;;;;6.25;88.74;99650.44;1601378;87;21061;-57
2022/09/24 01:26:29;;;;;;;10.90;6.90;;;;;;;6.33;88.63;99651.05;1603001;87;21009;-57
2022/09/24 01:29:04;;;;;;;11.60;7.05;;;;;;;6.36;88.74;99648.36;1622604;87;21217;-57
2022/09/24 01:31:40;;;;;;;10.75;6.70;;;;;;;6.42;88.77;99655.94;1604359;87;20996;-57
2022/09/24 01:34:11;;;;;;;10.95;6.85;;;;;;;6.46;88.85;99649.75;1608124;87;21098;-58
2022/09/24 01:36:39;;;;;;;11.48;6.92;;;;;;;6.47;88.84;99651.92;1606246;87;21004;-57
2022/09/24 01:39:07;;;;;;;8.78;6.80;;;;;;;6.49;88.91;99643.16;1585324;89;21492;-58
2022/09/24 01:41:38;;;;;;;11.10;6.28;;;;;;;6.52;88.88;99647.86;1581108;89;21032;-57
2022/09/24 01:44:06;;;;;;;9.93;7.03;;;;;;;6.55;89.07;99652.95;1579891;89;20970;-57
2022/09/24 01:46:36;;;;;;;13.60;7.30;;;;;;;6.58;89.11;99642.47;1579076;89;21511;-58
2022/09/24 01:49:05;;;;;;;10.23;6.90;;;;;;;6.61;89.02;99644.97;1611472;87;20949;-57
2022/09/24 01:51:49;;;;;;;10.80;6.72;;;;;;;6.61;89.20;99642.37;1608025;87;20960;-58
2022/09/24 01:54:34;;;;;;;10.48;5.95;;;;;;;6.69;89.24;99641.67;1603037;87;21076;-57
2022/09/24 01:57:18;;;;;;;12.78;6.90;;;;;;;6.75;89.32;99641.50;1580324;89;21019;-57
2022/09/24 02:00:05;;;;;;;6.85;5.92;;;;;;;6.80;89.36;99638.28;1685622;81;20890;-57
2022/09/24 02:02:55;;;;;;;8.80;5.80;;;;;;;6.84;89.41;99637.30;1708689;82;21057;-57
2022/09/24 02:05:35;;;;;;;9.80;5.65;;;;;;;6.86;89.43;99634.20;1713157;82;20930;-58
2022/09/24 02:08:33;;;;;;;7.33;5.75;;;;;;;6.86;89.40;99634.20;1711355;82;21072;-57
2022/09/24 02:11:07;;;;;;;7.05;5.25;;;;;;;6.86;89.45;99625.13;1710271;82;21471;-57
2022/09/24 02:13:50;;;;;;;6.15;4.75;;;;;;;6.87;89.49;99626.80;1727179;81;21946;-57
2022/09/24 02:16:21;;;;;;;8.88;5.95;;;;;;;6.88;89.55;99625.05;1725230;81;20902;-58
2022/09/24 02:18:52;;;;;;;7.75;5.15;;;;;;;6.89;89.54;99626.31;1730499;81;21045;-57
2022/09/24 02:21:21;;;;;;;8.35;5.10;;;;;;;6.91;89.57;99622.35;1708408;82;21419;-58
2022/09/24 02:23:54;;;;;;;7.00;5.15;;;;;;;6.91;89.55;99625.79;1700410;83;20910;-57
2022/09/24 02:26:21;;;;;;;7.97;4.90;;;;;;;6.89;89.26;99625.02;1724247;81;21481;-57
2022/09/24 02:28:48;;;;;;;7.20;5.10;;;;;;;6.89;89.56;99623.72;1723277;81;20898;-57
2022/09/24 02:31:26;;;;;;;9.77;5.47;;;;;;;6.85;89.15;99619.52;1714417;82;20970;-58
2022/09/24 02:36:39;;;;;;;8.00;5.08;;;;;;;6.75;89.35;99627.23;1725775;81;20949;-58
2022/09/24 02:39:06;;;;;;;7.03;5.22;;;;;;;6.74;89.49;99615.13;1708596;82;21594;-57
2022/09/24 02:41:33;;;;;;;5.47;4.60;;;;;;;6.73;89.52;99621.23;1709218;82;21136;-58
2022/09/24 02:44:00;;;;;;;7.95;5.55;;;;;;;6.70;89.54;99621.34;1707386;82;20945;-57
2022/09/24 02:46:27;;;;;;;7.42;5.05;;;;;;;6.63;89.29;99615.94;1713220;82;21052;-57
2022/09/24 02:48:54;;;;;;;6.58;4.97;;;;;;;6.56;89.25;99617.05;1707944;82;21000;-58
2022/09/24 02:51:20;;;;;;;9.85;5.00;;;;;;;6.50;89.38;99610.31;1694297;83;20974;-58
2022/09/24 02:53:47;;;;;;;6.37;4.90;;;;;;;6.43;89.17;99605.75;1707325;82;20977;-57
2022/09/24 02:56:14;;;;;;;7.37;4.90;;;;;;;6.40;89.66;99605.86;1707953;82;21024;-58
2022/09/24 02:58:42;;;;;;;6.67;4.42;;;;;;;6.36;89.85;99605.99;1712362;82;21917;-57
2022/09/24 03:01:08;;;;;;;6.03;4.75;;;;;;;6.33;89.20;99607.39;1715159;82;20917;-57
2022/09/24 03:03:35;;;;;;;6.17;4.92;;;;;;;6.18;88.87;99605.68;1727700;82;21637;-57
2022/09/24 03:06:02;;;;;;;5.92;5.05;;;;;;;6.04;88.78;99603.52;1721302;81;20905;-57
2022/09/24 03:08:30;;;;;;;7.27;4.60;;;;;;;5.96;88.85;99607.23;1729318;81;21536;-57
2022/09/24 03:10:56;;;;;;;6.72;4.80;;;;;;;5.85;88.90;99598.45;1680395;84;21209;-58
2022/09/24 03:13:23;;;;;;;7.08;5.30;;;;;;;5.78;88.99;99614.63;1714055;82;20923;-57
2022/09/24 03:15:50;;;;;;;7.73;4.60;;;;;;;5.72;89.12;99608.34;1679518;83;20973;-58
2022/09/24 03:18:16;;;;;;;8.27;5.90;;;;;;;5.70;89.32;99604.10;1741376;81;20980;-57
2022/09/24 03:20:45;;;;;;;8.90;5.50;;;;;;;5.69;89.46;99605.00;1744404;81;21212;-57
2022/09/24 03:23:11;;;;;;;6.67;5.20;;;;;;;5.67;89.48;99602.89;1728543;81;22020;-57
2022/09/24 03:25:38;;;;;;;9.33;5.83;;;;;;;5.64;89.57;99605.58;1727475;82;21421;-57
2022/09/24 03:28:05;;;;;;;12.58;5.60;;;;;;;5.60;89.62;99608.27;1710531;82;21474;-57
2022/09/24 03:33:16;;;;;;;6.55;5.20;;;;;;;5.58;89.89;99606.61;1723456;82;20949;-57
2022/09/24 03:35:43;;;;;;;8.80;5.80;;;;;;;5.64;90.17;99605.58;1729162;82;21047;-57
2022/09/24 03:38:10;;;;;;;8.93;5.17;;;;;;;5.69;90.21;99604.55;1731564;82;20960;-58
2022/09/24 03:40:36;;;;;;;7.40;5.45;;;;;;;5.75;90.21;99602.23;1731352;81;20996;-58
2022/09/24 03:43:03;;;;;;;11.03;5.27;;;;;;;5.84;90.41;99598.06;1749509;81;20890;-57
2022/09/24 03:45:30;;;;;;;8.85;5.58;;;;;;;5.93;90.46;99597.81;1733694;81;20930;-58
2022/09/24 03:47:56;;;;;;;7.42;5.47;;;;;;;6.01;90.41;99601.02;1750226;81;21044;-57
2022/09/24 03:50:23;;;;;;;8.40;5.33;;;;;;;6.10;90.41;99599.04;1739227;81;21440;-57
2022/09/24 03:52:50;;;;;;;6.50;5.27;;;;;;;6.15;90.38;99599.75;1748603;81;20935;-57
2022/09/24 03:55:16;;;;;;;7.30;5.55;;;;;;;6.22;90.40;99603.86;1728377;81;20886;-57
2022/09/24 03:57:43;;;;;;;7.73;4.40;;;;;;;6.28;90.46;99594.59;1724887;81;20910;-57
2022/09/24 04:00:11;;;;;;;6.75;4.80;;;;;;;6.33;90.39;99599.19;1730275;81;21046;-57
2022/09/24 04:02:37;;;;;;;8.03;4.62;;;;;;;6.38;90.42;99597.27;1728776;81;20899;-58
2022/09/24 04:05:05;;;;;;;9.00;5.17;;;;;;;6.42;90.40;99596.29;1728308;81;21060;-57
2022/09/24 04:07:31;;;;;;;;;;;;;;;6.45;90.41;99595.34;1723718;81;20886;-58
2022/09/24 04:09:58;;;;;;;5.60;4.73;;;;;;;6.52;90.57;99598.58;1727857;81;20102;-57
2022/09/24 04:12:25;;;;;;;6.57;4.93;;;;;;;6.58;90.66;99593.18;1718110;81;21102;-57
2022/09/24 04:14:51;;;;;;;6.90;5.28;;;;;;;6.66;90.74;99598.97;1729244;81;21029;-57
2022/09/24 04:17:18;;;;;;;9.03;4.90;;;;;;;6.74;90.74;99594.38;1730207;81;20903;-58
2022/09/24 04:19:45;;;;;;;7.80;4.97;;;;;;;6.79;90.65;99600.27;1728954;81;20962;-57
2022/09/24 04:22:12;;;;;;;6.67;4.50;;;;;;;6.80;90.58;99591.56;1732134;81;21884;-58
2022/09/24 04:24:39;;;;;;;9.00;4.83;;;;;;;6.81;90.39;99595.88;1731532;81;21054;-57
2022/09/24 04:27:05;;;;;;;8.80;4.90;;;;;;;6.84;90.63;99593.17;1730064;81;20900;-57
2022/09/24 04:29:32;;;;;;;7.90;5.10;;;;;;;6.92;90.79;99596.36;1733693;81;20942;-58
2022/09/24 04:31:59;;;;;;;8.90;5.25;;;;;;;7.02;90.84;99590.84;1737755;81;21399;-58
2022/09/24 04:34:26;;;;;;;14.77;5.07;;;;;;;7.06;90.57;99588.55;1733356;81;20882;-57
2022/09/24 04:36:53;;;;;;;9.90;4.85;;;;;;;7.03;90.31;99593.39;1732642;81;21141;-57
2022/09/24 04:39:25;;;;;;;6.70;4.58;;;;;;;6.98;90.21;99590.11;1732269;81;20916;-59
2022/09/24 04:41:48;;;;;;;6.22;4.25;;;;;;;6.91;90.09;99588.61;1732373;81;20895;-59
2022/09/24 04:44:14;;;;;;;8.03;4.50;;;;;;;6.81;89.97;99590.69;1730472;81;21641;-58
2022/09/24 04:46:41;;;;;;;6.30;4.50;;;;;;;6.75;90.12;99589.60;1728763;81;20954;-59
2022/09/24 04:49:09;;;;;;;6.70;4.70;;;;;;;6.72;90.27;99590.97;1734001;81;21841;-59
2022/09/24 04:51:35;;;;;;;6.90;4.30;;;;;;;6.74;90.55;99591.78;1728153;81;20934;-59
2022/09/24 04:54:03;;;;;;;6.40;4.17;;;;;;;6.81;90.72;99590.69;1728848;81;20985;-59
2022/09/24 04:56:30;;;;;;;7.72;4.87;;;;;;;6.86;90.69;99592.68;1725513;81;21424;-59
2022/09/24 04:58:57;;;;;;;6.50;4.12;;;;;;;6.89;90.70;99585.20;1732274;81;20883;-60
2022/09/24 05:01:24;;;;;;;;;;;;;;;6.91;90.71;99584.26;1733015;81;21126;-59
2022/09/24 05:03:51;;;;;;;6.65;4.80;;;;;;;6.97;90.81;99582.36;1732858;81;20442;-59
2022/09/24 05:06:17;;;;;;;7.83;5.15;;;;;;;7.04;91.02;99591.64;1723966;81;21494;-59
2022/09/24 05:08:44;;;;;;;7.77;5.13;;;;;;;7.15;91.17;99585.62;1732454;81;20926;-60
2022/09/24 05:11:11;;;;;;;7.87;5.00;;;;;;;7.27;91.19;99578.68;1729854;81;20938;-60
2022/09/24 05:13:38;;;;;;;7.80;4.80;;;;;;;7.39;91.16;99582.16;1741330;81;21913;-60
2022/09/24 05:16:05;;;;;;;8.93;4.83;;;;;;;7.49;91.13;99575.31;1743582;81;21448;-59
2022/09/24 05:18:32;;;;;;;8.33;5.58;;;;;;;7.59;91.08;99581.41;1726799;81;20985;-60
2022/09/24 05:20:59;;;;;;;10.07;5.63;;;;;;;7.71;91.03;99580.10;1735423;81;21001;-60
2022/09/24 05:23:25;;;;;;;10.93;5.58;;;;;;;7.79;91.05;99579.36;1721323;82;20945;-59
2022/09/24 05:28:38;;;;;;;14.40;7.00;;;;;;;8.01;91.07;99579.81;1711673;82;20956;-60
2022/09/24 05:31:04;;;;;;;;;;;;;;;8.11;91.06;99575.95;1719748;82;21064;-60
2022/09/24 05:33:31;;;;;;;10.73;4.83;;;;;;;8.23;90.96;99578.52;1716207;82;20137;-59
2022/09/24 05:35:58;;;;;;;8.13;4.58;;;;;;;8.33;91.26;99573.81;1713030;81;21436;-60
2022/09/24 05:38:24;;;;;;;8.30;4.60;;;;;;;8.45;91.00;99581.14;1733125;81;21085;-60
2022/09/24 05:40:51;;;;;;;10.10;5.17;;;;;;;8.71;91.54;99580.92;1738441;81;21429;-60
2022/09/24 05:43:18;;;;;;;11.05;5.15;;;;;;;9.22;91.97;99574.00;1729610;81;21047;-60
2022/09/24 05:45:45;;;;;;;7.92;5.45;;;;;;;9.77;91.75;99573.63;1733549;81;20976;-60
2022/09/24 05:48:12;;;;;;;8.60;4.63;;;;;;;10.06;90.85;99585.33;1736109;81;20927;-60
2022/09/24 05:50:38;;;;;;;8.93;5.05;;;;;;;10.46;91.08;99583.44;1740426;81;21504;-60
2022/09/24 05:53:05;;;;;;;15.13;5.55;;;;;;;10.91;90.54;99575.53;1707814;81;20966;-60
2022/09/24 05:55:32;;;;;;;6.33;4.28;;;;;;;11.13;90.09;99573.13;1732495;81;20943;-60
2022/09/24 05:58:06;;;;;;;7.92;5.10;;;;;;;11.24;89.74;99573.41;1731771;81;20927;-59
2022/09/24 06:00:38;;;;;;;6.90;5.55;;;;;;;11.27;89.36;99575.87;1730273;81;20951;-60
2022/09/24 06:03:10;;;;;;;12.18;6.17;;;;;;;11.29;89.30;99568.80;1733627;81;21264;-62
2022/09/24 06:05:36;;;;;;;8.20;5.55;;;;;;;11.23;89.15;99567.82;1732902;81;21548;-62
2022/09/24 06:08:04;;;;;;;8.33;5.93;;;;;;;11.13;89.10;99560.06;1732840;81;20915;-62
2022/09/24 06:10:31;;;;;;;11.45;6.03;;;;;;;11.05;89.17;99569.60;1729205;81;21487;-61
2022/09/24 06:12:57;;;;;;;;;;;;;;;11.11;89.76;99567.97;1730756;81;20996;-62
2022/09/24 06:15:26;;;;;;;84.23;32.93;;;;;;;11.12;89.31;99564.92;1728073;81;21776;-62
2022/09/24 06:17:53;;;;;;;42.93;16.55;;;;;;;11.08;89.33;99575.13;1734131;81;21546;-65
2022/09/24 06:20:21;;;;;;;59.23;24.07;;;;;;;11.05;89.37;99568.77;1740463;81;20943;-63
2022/09/24 06:22:49;;;;;;;40.40;17.48;;;;;;;11.11;89.72;99567.13;1727225;81;20911;-62
2022/09/24 06:25:15;;;;;;;;;;;;;;;11.28;89.79;99572.31;1726164;81;20910;-62
2022/09/24 06:27:42;;;;;;;15.85;8.85;;;;;;;11.56;89.86;99570.86;1723948;81;21067;-62
2022/09/24 06:30:10;;;;;;;13.20;6.93;;;;;;;11.71;89.60;99568.73;1717887;81;20934;-62
2022/09/24 06:32:37;;;;;;;9.65;6.62;;;;;;;11.88;89.51;99565.70;1726453;81;20881;-61
2022/09/24 06:35:05;;;;;;;12.70;6.58;;;;;;;12.04;89.85;99570.00;1726645;81;21383;-62
2022/09/24 06:37:32;;;;;;;9.13;6.10;;;;;;;12.24;89.86;99566.26;1725112;81;20899;-62
2022/09/24 06:39:59;;;;;;;8.93;6.03;;;;;;;12.45;89.79;99563.34;1730600;81;21047;-62
2022/09/24 06:42:26;;;;;;;8.78;6.35;;;;;;;12.67;89.75;99562.47;1725392;81;20890;-62
2022/09/24 06:44:52;;;;;;;7.15;5.72;;;;;;;12.83;89.38;99566.36;1726299;81;20942;-62
2022/09/24 06:47:19;;;;;;;9.68;5.40;;;;;;;12.96;89.16;99567.77;1726713;81;20938;-62
2022/09/24 06:49:49;;;;;;;6.97;5.23;;;;;;;13.03;88.97;99568.27;1726233;81;20942;-62
2022/09/24 06:52:15;;;;;;;9.85;5.50;;;;;;;13.12;89.42;99564.61;1723463;81;21122;-61
2022/09/24 06:54:41;;;;;;;10.50;5.60;;;;;;;13.35;90.11;99559.78;1723536;81;20926;-61
2022/09/24 06:57:08;;;;;;;5.22;4.20;;;;;;;13.48;89.89;99562.03;1723586;81;21482;-62
2022/09/24 06:59:35;;;;;;;9.87;4.53;;;;;;;13.65;89.62;99557.88;1723376;81;21561;-61
2022/09/24 07:02:01;;;;;;;9.67;5.30;;;;;;;13.89;89.91;99542.83;1735017;81;21446;-61
2022/09/24 07:04:28;;;;;;;8.43;5.12;;;;;;;13.89;89.91;99542.83;1726253;81;21592;-61
2022/09/24 07:09:40;;;;;;;5.83;4.33;;;;;;;14.17;89.34;99559.44;1726490;81;21057;-61
2022/09/24 07:12:07;;;;;;;11.25;5.10;;;;;;;14.25;89.20;99559.30;1729871;81;21401;-61
2022/09/24 07:14:34;;;;;;;6.10;4.00;;;;;;;14.26;88.55;99554.92;1729220;81;21515;-61
2022/09/24 07:17:01;;;;;;;5.08;3.37;;;;;;;14.18;88.48;99559.83;1729480;81;21508;-62
2022/09/24 07:19:27;;;;;;;4.95;3.95;;;;;;;14.19;88.28;99553.63;1727969;81;21495;-61
2022/09/24 07:21:54;;;;;;;5.33;4.55;;;;;;;14.20;88.18;99555.30;1726435;81;20915;-61
2022/09/24 07:24:21;;;;;;;7.20;4.12;;;;;;;14.24;88.17;99560.26;1727579;81;20931;-61
2022/09/24 07:26:48;;;;;;;4.67;3.80;;;;;;;14.28;87.89;99558.27;1726787;81;20879;-62
2022/09/24 07:29:15;;;;;;;4.62;3.90;;;;;;;14.31;87.65;99565.94;1725370;81;21136;-61
2022/09/24 07:31:41;;;;;;;5.30;3.62;;;;;;;14.34;87.57;99567.08;1724367;81;21388;-61
2022/09/24 07:34:08;;;;;;;6.30;3.98;;;;;;;14.47;88.02;99566.63;1725438;81;20989;-62
2022/09/24 07:36:35;;;;;;;5.85;4.33;;;;;;;14.62;87.85;99562.64;1723894;81;20950;-62
2022/09/24 07:39:02;;;;;;;7.20;3.80;;;;;;;14.66;87.24;99564.14;1724979;81;21483;-61
2022/09/24 07:41:29;;;;;;;6.90;4.35;;;;;;;14.79;87.41;99558.44;1726806;81;21817;-61
2022/09/24 07:43:55;;;;;;;;;;;;;;;14.91;87.06;99564.66;1728639;81;21464;-61
2022/09/24 07:46:23;;;;;;;7.62;3.62;;;;;;;14.99;86.65;99563.19;1725094;81;20121;-61
2022/09/24 07:48:54;;;;;;;12.47;4.67;;;;;;;14.98;86.14;99555.39;1726893;81;20905;-62
2022/09/24 07:51:22;;;;;;;10.72;3.90;;;;;;;14.91;85.71;99562.02;1733140;81;21464;-61
2022/09/24 07:54:04;;;;;;;3.20;2.75;;;;;;;14.84;85.63;99565.52;1725814;81;21840;-61
2022/09/24 07:56:31;;;;;;;9.28;3.37;;;;;;;14.71;85.27;99565.99;1718218;83;21533;-63
2022/09/24 07:58:58;;;;;;;7.00;2.92;;;;;;;14.65;85.47;99567.72;1725929;81;20965;-63
2022/09/24 08:01:25;;;;;;;6.17;2.75;;;;;;;14.66;85.38;99565.45;1727208;81;20970;-62
2022/09/24 08:03:52;;;;;;;7.95;3.45;;;;;;;14.59;84.97;99569.42;1732753;81;20933;-63
2022/09/24 08:06:24;;;;;;;7.40;2.92;;;;;;;14.64;85.45;99566.02;1729660;81;22016;-63
2022/09/24 08:08:51;;;;;;;4.15;3.40;;;;;;;14.71;85.27;99565.99;1726438;81;20847;-63
2022/09/24 08:11:18;;;;;;;3.77;2.45;;;;;;;14.76;84.87;99573.11;1728392;81;20858;-62
2022/09/24 08:13:45;;;;;;;5.25;3.00;;;;;;;14.73;85.01;99575.91;1680695;83;20930;-62
2022/09/24 08:16:12;;;;;;;5.47;2.42;;;;;;;14.77;84.60;99578.72;1730484;81;20980;-62
2022/09/24 08:18:42;;;;;;;8.55;3.17;;;;;;;14.86;84.93;99578.09;1717835;82;20991;-61
2022/09/24 08:21:14;;;;;;;5.03;3.02;;;;;;;14.99;84.43;99576.33;1712373;82;20898;-62
2022/09/24 08:23:39;;;;;;;3.25;2.58;;;;;;;15.05;84.18;99574.23;1711850;82;20945;-62
2022/09/24 08:26:07;;;;;;;5.40;3.42;;;;;;;15.16;84.16;99579.60;1718584;82;20917;-63
2022/09/24 08:28:34;;;;;;;2.30;2.02;;;;;;;15.30;84.01;99575.55;1739669;81;20942;-62
2022/09/24 08:31:06;;;;;;;3.80;1.47;;;;;;;15.40;83.69;99577.91;1727707;81;21040;-63
2022/09/24 08:33:32;;;;;;;3.75;1.92;;;;;;;15.61;84.04;99579.98;1710105;82;21331;-62
2022/09/24 08:36:02;;;;;;;3.85;2.30;;;;;;;15.86;83.80;99576.01;1712184;82;20879;-64
2022/09/24 08:38:30;;;;;;;4.28;1.80;;;;;;;16.00;83.30;99571.07;1713216;82;37875;-62
2022/09/24 08:41:52;;;;;;;7.75;2.15;;;;;;;16.03;82.70;99580.55;1710664;82;26715;-62
2022/09/24 08:47:49;;;;;;;3.92;2.10;;;;;;;16.26;82.51;99579.70;1724574;82;20960;-62
2022/09/24 08:50:24;;;;;;;5.17;2.40;;;;;;;16.31;81.97;99582.02;1711903;82;21503;-62
2022/09/24 08:53:25;;;;;;;11.70;2.67;;;;;;;16.38;81.98;99582.39;1715413;82;20978;-62
2022/09/24 08:56:00;;;;;;;9.13;2.47;;;;;;;16.39;81.60;99581.45;1712687;82;20977;-63
2022/09/24 08:58:57;;;;;;;5.87;2.27;;;;;;;16.45;81.73;99577.05;1735292;81;21030;-62
2022/09/24 09:01:41;;;;;;;4.25;2.10;;;;;;;16.51;81.44;99578.74;1686072;83;21443;-60
2022/09/24 09:04:34;;;;;;;5.12;1.90;;;;;;;16.54;81.13;99575.88;1713425;81;20970;-60
2022/09/24 09:07:09;;;;;;;6.10;2.02;;;;;;;16.45;80.46;99577.05;1693370;83;21448;-62
2022/09/24 09:09:56;;;;;;;3.02;1.90;;;;;;;16.17;79.43;99581.70;1682592;83;21032;-63
2022/09/24 09:12:36;;;;;;;3.67;1.85;;;;;;;15.92;79.37;99578.67;1675613;84;21188;-62
2022/09/24 09:15:11;;;;;;;3.85;2.10;;;;;;;15.77;79.46;99583.25;1676245;84;21068;-62
2022/09/24 09:17:46;;;;;;;10.75;2.62;;;;;;;15.61;79.03;99583.45;1649099;84;21510;-62
2022/09/24 09:20:40;;;;;;;7.28;3.55;;;;;;;15.54;79.06;99585.30;1673345;84;20988;-62
2022/09/24 09:23:20;;;;;;;3.60;1.75;;;;;;;15.59;79.54;99579.25;1677591;84;20910;-62
2022/09/24 09:25:57;;;;;;;7.30;1.92;;;;;;;15.74;79.38;99585.24;1676027;84;21118;-62
2022/09/24 09:28:26;;;;;;;6.25;1.87;;;;;;;15.88;79.29;99588.59;1677796;84;21495;-62
2022/09/24 09:31:05;;;;;;;2.87;1.87;;;;;;;16.01;78.95;99583.76;1671900;84;20933;-62
2022/09/24 09:34:09;;;;;;;9.20;2.10;;;;;;;15.99;78.60;99585.20;1673187;84;20933;-61
2022/09/24 09:37:13;;;;;;;4.60;2.02;;;;;;;16.00;78.19;99588.19;1673264;84;21017;-62
2022/09/24 09:40:11;;;;;;;4.33;1.87;;;;;;;16.09;78.02;99585.37;1647081;85;21084;-62
2022/09/24 09:42:43;;;;;;;3.75;1.70;;;;;;;16.25;77.90;99587.26;1679855;84;21020;-62
2022/09/24 09:45:33;;;;;;;2.95;1.70;;;;;;;16.34;77.59;99582.63;1704732;84;20919;-62
2022/09/24 09:48:03;;;;;;;6.37;2.00;;;;;;;16.38;77.29;99585.03;1693299;82;20946;-62
2022/09/24 09:50:40;;;;;;;4.42;1.55;;;;;;;16.28;76.70;99580.44;1707083;82;21912;-62
2022/09/24 09:53:26;;;;;;;6.12;1.87;;;;;;;16.19;76.87;99587.70;1687830;83;21542;-62
2022/09/24 09:56:06;;;;;;;2.98;1.90;;;;;;;16.21;76.31;99587.09;1683223;83;20912;-62
2022/09/24 09:58:40;;;;;;;3.70;1.82;;;;;;;16.25;76.41;99585.94;1683389;83;20947;-62
2022/09/24 10:01:11;;;;;;;3.98;1.52;;;;;;;16.29;75.94;99587.38;1654730;85;20937;-62
2022/09/24 10:03:54;;;;;;;5.35;2.02;;;;;;;16.21;76.06;99585.78;1683278;83;20965;-62
2022/09/24 10:06:26;;;;;;;3.08;1.80;;;;;;;16.16;75.43;99582.66;1678843;84;21162;-62
2022/09/24 10:09:13;;;;;;;6.03;2.10;;;;;;;16.07;75.15;99583.31;1669591;83;21480;-62
2022/09/24 10:11:41;;;;;;;4.00;2.00;;;;;;;15.95;74.68;99577.62;1699485;82;20928;-62
2022/09/24 10:14:12;;;;;;;;;;;;;;;15.96;75.20;99581.92;1698191;83;20915;-62
2022/09/24 10:16:47;;;;;;;5.47;2.83;;;;;;;16.03;74.85;99577.91;1692192;83;20111;-62
2022/09/24 10:19:21;;;;;;;3.92;2.15;;;;;;;15.99;74.45;99576.44;1695077;83;21022;-62
2022/09/24 10:21:49;;;;;;;3.12;1.90;;;;;;;15.93;74.29;99583.46;1695172;83;20946;-62
2022/09/24 10:24:24;;;;;;;2.72;1.90;;;;;;;15.95;74.01;99572.36;1696170;83;20911;-62
2022/09/24 10:26:52;;;;;;;8.03;2.52;;;;;;;16.01;73.97;99579.80;1682854;83;20960;-62
2022/09/24 10:32:21;;;;;;;3.42;1.42;;;;;;;16.09;73.42;99572.20;1676190;83;21051;-62
2022/09/24 10:35:01;;;;;;;4.53;1.80;;;;;;;16.08;73.01;99573.99;1678983;83;20921;-62
2022/09/24 10:37:29;;;;;;;5.95;2.35;;;;;;;16.12;73.13;99569.34;1698147;83;20921;-62
2022/09/24 10:40:02;;;;;;;6.25;2.10;;;;;;;16.22;72.92;99572.99;1682053;83;20995;-62
2022/09/24 10:42:30;;;;;;;2.27;1.87;;;;;;;16.28;72.74;99569.91;1686459;83;20927;-62
2022/09/24 10:45:03;;;;;;;2.77;1.60;;;;;;;16.34;72.65;99568.61;1682955;83;21046;-62
2022/09/24 10:48:09;;;;;;;2.33;1.80;;;;;;;16.37;72.06;99568.87;1681229;83;20954;-62
2022/09/24 10:51:21;;;;;;;2.90;1.72;;;;;;;16.30;71.65;99570.64;1681980;83;20931;-62
2022/09/24 10:54:17;;;;;;;3.10;2.15;;;;;;;16.26;71.68;99569.17;1694961;83;20954;-62
2022/09/24 10:56:50;;;;;;;6.30;3.77;;;;;;;16.25;71.21;99568.81;1659732;85;20915;-62
2022/09/24 10:59:55;;;;;;;3.70;2.87;;;;;;;16.18;70.87;99562.30;1650446;85;21261;-62
2022/09/24 11:02:54;;;;;;;4.50;2.10;;;;;;;16.03;70.33;99559.48;1651471;85;20945;-61
2022/09/24 11:05:22;;;;;;;2.72;1.82;;;;;;;15.99;70.65;99556.23;1649102;85;21128;-62
2022/09/24 11:08:09;;;;;;;2.92;1.87;;;;;;;16.16;70.77;99559.41;1650320;85;20936;-62
2022/09/24 11:11:01;;;;;;;4.30;3.10;;;;;;;16.28;70.71;99556.73;1647760;85;20962;-62
2022/09/24 11:14:07;;;;;;;6.50;3.72;;;;;;;16.28;70.20;99555.89;1647194;84;21182;-61
2022/09/24 11:17:29;;;;;;;4.00;2.40;;;;;;;16.13;69.92;99559.16;1649416;85;20930;-61
2022/09/24 11:20:25;;;;;;;6.05;2.58;;;;;;;16.04;69.89;99557.20;1650852;85;20997;-62
2022/09/24 11:23:12;;;;;;;3.08;1.65;;;;;;;15.93;69.54;99558.45;1646149;85;21017;-62
2022/09/24 11:25:50;;;;;;;4.03;1.60;;;;;;;15.82;69.64;99562.71;1643713;85;21085;-61
2022/09/24 11:28:28;;;;;;;2.08;1.87;;;;;;;15.99;69.65;99558.00;1650443;85;21572;-62
2022/09/24 11:31:16;;;;;;;4.78;2.00;;;;;;;16.07;69.07;99552.54;1649357;85;20926;-61
2022/09/24 11:34:11;;;;;;;2.27;1.62;;;;;;;16.19;69.22;99552.14;1675801;82;20928;-62
2022/09/24 11:36:54;;;;;;;4.20;2.33;;;;;;;16.34;68.98;99551.00;1707245;82;21425;-62
2022/09/24 11:39:38;;;;;;;5.75;2.58;;;;;;;16.51;69.16;99551.55;1709445;82;20971;-62
2022/09/24 11:42:47;;;;;;;2.12;1.72;;;;;;;16.74;69.07;99541.91;1711252;82;21070;-62
2022/09/24 11:45:19;;;;;;;3.47;1.65;;;;;;;16.77;68.22;99542.55;1731092;81;20917;-62
2022/09/24 11:48:13;;;;;;;3.77;1.90;;;;;;;16.69;67.39;99534.38;1734781;81;21174;-62
2022/09/24 11:50:59;;;;;;;13.48;7.85;;;;;;;16.46;67.10;99543.14;1620515;87;21025;-61
2022/09/24 11:53:37;;;;;;;5.40;2.58;;;;;;;16.24;66.58;99549.98;1635260;86;20956;-62
2022/09/24 11:56:17;;;;;;;10.55;5.15;;;;;;;16.15;66.54;99545.41;1627881;87;21045;-62
2022/09/24 11:58:52;;;;;;;2.67;1.95;;;;;;;16.23;67.10;99545.69;1630486;86;21557;-62
2022/09/24 12:01:37;;;;;;;4.67;2.10;;;;;;;16.52;67.16;99542.68;1640669;86;20987;-62
2022/09/24 12:04:11;;;;;;;4.65;2.72;;;;;;;16.91;66.96;99540.66;1631146;86;21079;-62
2022/09/24 12:06:55;;;;;;;3.70;1.95;;;;;;;17.17;66.66;99538.67;1633259;86;21463;-61
2022/09/24 12:09:48;;;;;;;2.77;1.70;;;;;;;17.33;66.29;99535.66;1628230;87;21901;-62
2022/09/24 12:12:26;;;;;;;2.87;1.82;;;;;;;17.47;65.75;99542.02;1638394;86;21128;-65
2022/09/24 12:15:19;;;;;;;2.90;1.90;;;;;;;17.29;65.28;99536.87;1608698;87;21027;-64
2022/09/24 12:17:59;;;;;;;2.92;1.80;;;;;;;17.33;65.56;99539.62;1618992;87;21653;-64
2022/09/24 12:20:31;;;;;;;5.30;2.40;;;;;;;17.42;65.72;99541.53;1613259;87;20950;-63
2022/09/24 12:23:11;;;;;;;2.58;1.90;;;;;;;17.47;65.42;99545.97;1609097;87;21076;-63
2022/09/24 12:25:45;;;;;;;2.02;1.72;;;;;;;17.34;64.84;99540.00;1613240;87;20950;-64